sensor_id;sensor_type;location;lat;lon;timestamp;pressure;altitude;pressure_sealevel;temperature;humidity
55277;BME280;41136;51.478;-2.610;2023-07-29T00:02:01;99692.80;;;19.35;100.00
55277;BME280;41136;51.478;-2.610;2023-07-29T00:04:26;99691.35;;;19.07;100.00
55277;BME280;41136;51.478;-2.610;2023-07-29T00:06:51;99688.95;;;19.14;100.00
55277;BME280;41136;51.478;-2.610;2023-07-29T00:09:16;99690.12;;;19.38;100.00
55277;BME280;41136;51.478;-2.610;2023-07-29T00:11:42;99692.55;;;18.19;100.00
55277;BME280;41136;51.478;-2.610;2023-07-29T00:14:07;99687.81;;;19.31;100.00
55277;BME280;41136;51.478;-2.610;2023-07-29T00:16:32;99678.77;;;19.39;100.00
55277;BME280;41136;51.478;-2.610;2023-07-29T00:18:57;99677.75;;;18.96;100.00
55277;BME280;41136;51.478;-2.610;2023-07-29T00:21:23;99673.44;;;18.78;100.00
55277;BME280;41136;51.478;-2.610;2023-07-29T00:23:48;99666.38;;;19.02;100.00
55277;BME280;41136;51.478;-2.610;2023-07-29T00:26:13;99674.93;;;18.63;100.00
55277;BME280;41136;51.478;-2.610;2023-07-29T00:28:38;99675.12;;;19.46;100.00
55277;BME280;41136;51.478;-2.610;2023-07-29T00:31:04;99671.33;;;19.50;100.00
55277;BME280;41136;51.478;-2.610;2023-07-29T00:33:29;99668.18;;;18.99;100.00
55277;BME280;41136;51.478;-2.610;2023-07-29T00:35:55;99665.44;;;19.50;100.00
55277;BME280;41136;51.478;-2.610;2023-07-29T00:38:19;99670.44;;;18.78;100.00
55277;BME280;41136;51.478;-2.610;2023-07-29T00:40:45;99668.97;;;18.19;100.00
55277;BME280;41136;51.478;-2.610;2023-07-29T00:43:10;99669.51;;;18.35;100.00
55277;BME280;41136;51.478;-2.610;2023-07-29T00:45:36;99667.49;;;19.06;100.00
55277;BME280;41136;51.478;-2.610;2023-07-29T00:48:02;99664.26;;;18.73;100.00
55277;BME280;41136;51.478;-2.610;2023-07-29T00:50:26;99663.10;;;18.62;100.00
55277;BME280;41136;51.478;-2.610;2023-07-29T00:52:51;99663.41;;;18.89;100.00
55277;BME280;41136;51.478;-2.610;2023-07-29T00:55:17;99663.00;;;18.56;100.00
55277;BME280;41136;51.478;-2.610;2023-07-29T00:57:42;99661.22;;;18.38;100.00
55277;BME280;41136;51.478;-2.610;2023-07-29T01:00:08;99656.79;;;18.61;100.00
55277;BME280;41136;51.478;-2.610;2023-07-29T01:02:32;99655.84;;;18.49;100.00
55277;BME280;41136;51.478;-2.610;2023-07-29T01:04:58;99652.66;;;19.33;100.00
55277;BME280;41136;51.478;-2.610;2023-07-29T01:07:29;99647.86;;;19.50;100.00
55277;BME280;41136;51.478;-2.610;2023-07-29T01:09:54;99651.94;;;19.95;100.00
55277;BME280;41136;51.478;-2.610;2023-07-29T01:12:19;99651.02;;;19.44;100.00
55277;BME280;41136;51.478;-2.610;2023-07-29T01:14:44;99650.68;;;19.58;100.00
55277;BME280;41136;51.478;-2.610;2023-07-29T01:17:08;99651.21;;;19.16;100.00
55277;BME280;41136;51.478;-2.610;2023-07-29T01:19:42;99644.30;;;19.31;100.00
55277;BME280;41136;51.478;-2.610;2023-07-29T01:21:55;99639.99;;;19.43;100.00
55277;BME280;41136;51.478;-2.610;2023-07-29T01:24:19;99643.56;;;19.45;100.00
55277;BME280;41136;51.478;-2.610;2023-07-29T01:26:45;99643.68;;;18.69;100.00
55277;BME280;41136;51.478;-2.610;2023-07-29T01:29:10;99640.00;;;19.56;100.00
55277;BME280;41136;51.478;-2.610;2023-07-29T01:35:22;99635.85;;;19.50;100.00
55277;BME280;41136;51.478;-2.610;2023-07-29T01:37:37;99633.74;;;19.16;100.00
55277;BME280;41136;51.478;-2.610;2023-07-29T01:40:02;99632.10;;;19.45;99.67
55277;BME280;41136;51.478;-2.610;2023-07-29T01:42:27;99632.61;;;19.19;100.00
55277;BME280;41136;51.478;-2.610;2023-07-29T01:44:52;99627.50;;;19.97;99.69
55277;BME280;41136;51.478;-2.610;2023-07-29T01:47:17;99628.08;;;19.58;100.00
55277;BME280;41136;51.478;-2.610;2023-07-29T01:49:42;99628.50;;;19.69;100.00
55277;BME280;41136;51.478;-2.610;2023-07-29T01:52:08;99629.79;;;19.85;100.00
55277;BME280;41136;51.478;-2.610;2023-07-29T01:54:33;99628.14;;;19.76;100.00
55277;BME280;41136;51.478;-2.610;2023-07-29T01:56:58;99622.82;;;19.66;100.00
55277;BME280;41136;51.478;-2.610;2023-07-29T01:59:23;99630.98;;;18.82;100.00
55277;BME280;41136;51.478;-2.610;2023-07-29T02:01:49;99633.08;;;19.21;100.00
55277;BME280;41136;51.478;-2.610;2023-07-29T02:04:14;99634.16;;;19.13;100.00
55277;BME280;41136;51.478;-2.610;2023-07-29T02:06:39;99634.88;;;19.51;100.00
55277;BME280;41136;51.478;-2.610;2023-07-29T02:09:04;99635.16;;;18.59;100.00
55277;BME280;41136;51.478;-2.610;2023-07-29T02:11:30;99632.71;;;18.96;100.00
55277;BME280;41136;51.478;-2.610;2023-07-29T02:13:55;99635.43;;;18.02;100.00
55277;BME280;41136;51.478;-2.610;2023-07-29T02:16:20;99633.72;;;17.81;100.00
55277;BME280;41136;51.478;-2.610;2023-07-29T02:18:46;99627.13;;;18.73;100.00
55277;BME280;41136;51.478;-2.610;2023-07-29T02:21:11;99626.05;;;18.08;100.00
55277;BME280;41136;51.478;-2.610;2023-07-29T02:23:36;99624.47;;;17.85;100.00
55277;BME280;41136;51.478;-2.610;2023-07-29T02:26:01;99620.85;;;18.09;100.00
55277;BME280;41136;51.478;-2.610;2023-07-29T02:28:27;99612.24;;;19.18;100.00
55277;BME280;41136;51.478;-2.610;2023-07-29T02:33:17;99612.69;;;18.34;100.00
55277;BME280;41136;51.478;-2.610;2023-07-29T02:35:42;99620.80;;;19.28;100.00
55277;BME280;41136;51.478;-2.610;2023-07-29T02:38:08;99623.18;;;18.36;100.00
55277;BME280;41136;51.478;-2.610;2023-07-29T02:40:33;99617.81;;;18.25;100.00
55277;BME280;41136;51.478;-2.610;2023-07-29T02:42:58;99617.47;;;18.63;100.00
55277;BME280;41136;51.478;-2.610;2023-07-29T02:45:24;99617.59;;;18.57;100.00
55277;BME280;41136;51.478;-2.610;2023-07-29T02:47:49;99614.67;;;18.62;100.00
55277;BME280;41136;51.478;-2.610;2023-07-29T02:50:14;99615.37;;;18.77;100.00
55277;BME280;41136;51.478;-2.610;2023-07-29T02:52:39;99612.31;;;19.13;100.00
55277;BME280;41136;51.478;-2.610;2023-07-29T02:55:05;99614.53;;;18.70;100.00
55277;BME280;41136;51.478;-2.610;2023-07-29T02:57:30;99612.47;;;18.27;100.00
55277;BME280;41136;51.478;-2.610;2023-07-29T02:59:55;99613.62;;;19.03;100.00
55277;BME280;41136;51.478;-2.610;2023-07-29T03:02:20;99618.82;;;18.04;100.00
55277;BME280;41136;51.478;-2.610;2023-07-29T03:04:48;99618.05;;;18.46;100.00
55277;BME280;41136;51.478;-2.610;2023-07-29T03:07:11;99613.74;;;19.18;100.00
55277;BME280;41136;51.478;-2.610;2023-07-29T03:09:36;99614.56;;;19.11;100.00
55277;BME280;41136;51.478;-2.610;2023-07-29T03:12:01;99613.60;;;18.74;100.00
55277;BME280;41136;51.478;-2.610;2023-07-29T03:14:27;99616.55;;;18.79;100.00
55277;BME280;41136;51.478;-2.610;2023-07-29T03:16:52;99613.53;;;17.96;100.00
55277;BME280;41136;51.478;-2.610;2023-07-29T03:19:17;99614.08;;;18.88;100.00
55277;BME280;41136;51.478;-2.610;2023-07-29T03:21:42;99613.02;;;18.68;100.00
55277;BME280;41136;51.478;-2.610;2023-07-29T03:24:08;99609.46;;;18.80;100.00
55277;BME280;41136;51.478;-2.610;2023-07-29T03:26:33;99611.29;;;18.58;100.00
55277;BME280;41136;51.478;-2.610;2023-07-29T03:28:58;99612.19;;;18.84;100.00
55277;BME280;41136;51.478;-2.610;2023-07-29T03:31:23;99610.26;;;18.59;100.00
55277;BME280;41136;51.478;-2.610;2023-07-29T03:33:49;99610.39;;;18.50;100.00
55277;BME280;41136;51.478;-2.610;2023-07-29T03:36:14;99607.45;;;18.92;100.00
55277;BME280;41136;51.478;-2.610;2023-07-29T03:38:39;99598.53;;;19.24;100.00
55277;BME280;41136;51.478;-2.610;2023-07-29T03:41:05;99603.15;;;18.68;100.00
55277;BME280;41136;51.478;-2.610;2023-07-29T03:43:30;99603.29;;;19.21;100.00
55277;BME280;41136;51.478;-2.610;2023-07-29T03:45:55;99610.38;;;18.79;100.00
55277;BME280;41136;51.478;-2.610;2023-07-29T03:48:20;99615.40;;;18.46;100.00
55277;BME280;41136;51.478;-2.610;2023-07-29T03:50:46;99613.56;;;18.92;100.00
55277;BME280;41136;51.478;-2.610;2023-07-29T03:53:11;99619.65;;;17.73;100.00
55277;BME280;41136;51.478;-2.610;2023-07-29T03:55:37;99622.96;;;18.56;100.00
55277;BME280;41136;51.478;-2.610;2023-07-29T03:58:02;99625.70;;;18.01;100.00
55277;BME280;41136;51.478;-2.610;2023-07-29T04:00:28;99623.67;;;18.01;100.00
55277;BME280;41136;51.478;-2.610;2023-07-29T04:02:52;99626.82;;;18.61;100.00
55277;BME280;41136;51.478;-2.610;2023-07-29T04:05:18;99631.70;;;17.67;100.00
55277;BME280;41136;51.478;-2.610;2023-07-29T04:07:43;99630.85;;;18.18;100.00
55277;BME280;41136;51.478;-2.610;2023-07-29T04:10:09;99632.58;;;18.17;100.00
55277;BME280;41136;51.478;-2.610;2023-07-29T04:12:34;99643.62;;;17.43;100.00
55277;BME280;41136;51.478;-2.610;2023-07-29T04:14:59;99638.19;;;17.64;100.00
55277;BME280;41136;51.478;-2.610;2023-07-29T04:17:24;99643.13;;;16.96;100.00
55277;BME280;41136;51.478;-2.610;2023-07-29T04:19:49;99642.69;;;18.45;100.00
55277;BME280;41136;51.478;-2.610;2023-07-29T04:22:16;99648.58;;;17.18;100.00
55277;BME280;41136;51.478;-2.610;2023-07-29T04:24:40;99646.94;;;16.34;100.00
55277;BME280;41136;51.478;-2.610;2023-07-29T04:27:05;99642.93;;;16.75;100.00
55277;BME280;41136;51.478;-2.610;2023-07-29T04:29:31;99644.45;;;16.91;100.00
55277;BME280;41136;51.478;-2.610;2023-07-29T04:31:56;99640.49;;;16.87;100.00
55277;BME280;41136;51.478;-2.610;2023-07-29T04:34:21;99639.93;;;17.18;100.00
55277;BME280;41136;51.478;-2.610;2023-07-29T04:36:47;99640.64;;;16.38;100.00
55277;BME280;41136;51.478;-2.610;2023-07-29T04:39:11;99640.56;;;16.93;100.00
55277;BME280;41136;51.478;-2.610;2023-07-29T04:41:37;99642.47;;;16.94;100.00
55277;BME280;41136;51.478;-2.610;2023-07-29T04:44:02;99635.80;;;17.90;100.00
55277;BME280;41136;51.478;-2.610;2023-07-29T04:48:50;99635.72;;;18.23;100.00
55277;BME280;41136;51.478;-2.610;2023-07-29T04:51:15;99638.14;;;18.09;100.00
55277;BME280;41136;51.478;-2.610;2023-07-29T04:53:41;99637.69;;;18.66;100.00
55277;BME280;41136;51.478;-2.610;2023-07-29T04:56:06;99632.41;;;18.82;100.00
55277;BME280;41136;51.478;-2.610;2023-07-29T04:58:31;99636.34;;;19.29;100.00
55277;BME280;41136;51.478;-2.610;2023-07-29T05:00:57;99636.82;;;18.96;100.00
55277;BME280;41136;51.478;-2.610;2023-07-29T05:03:22;99636.97;;;19.22;100.00
55277;BME280;41136;51.478;-2.610;2023-07-29T05:05:47;99640.57;;;18.53;100.00
55277;BME280;41136;51.478;-2.610;2023-07-29T05:08:12;99647.55;;;18.51;100.00
55277;BME280;41136;51.478;-2.610;2023-07-29T05:10:38;99649.46;;;18.30;100.00
55277;BME280;41136;51.478;-2.610;2023-07-29T05:13:03;99655.94;;;17.60;100.00
55277;BME280;41136;51.478;-2.610;2023-07-29T05:15:28;99645.55;;;18.42;100.00
55277;BME280;41136;51.478;-2.610;2023-07-29T05:17:53;99642.67;;;18.64;100.00
55277;BME280;41136;51.478;-2.610;2023-07-29T05:20:19;99639.02;;;19.45;100.00
55277;BME280;41136;51.478;-2.610;2023-07-29T05:22:44;99642.38;;;19.13;100.00
55277;BME280;41136;51.478;-2.610;2023-07-29T05:25:09;99635.85;;;19.07;100.00
55277;BME280;41136;51.478;-2.610;2023-07-29T05:27:34;99635.76;;;18.50;100.00
55277;BME280;41136;51.478;-2.610;2023-07-29T05:30:00;99632.50;;;19.01;100.00
55277;BME280;41136;51.478;-2.610;2023-07-29T05:32:25;99632.22;;;19.07;100.00
55277;BME280;41136;51.478;-2.610;2023-07-29T05:34:50;99632.40;;;19.31;100.00
55277;BME280;41136;51.478;-2.610;2023-07-29T05:37:16;99634.44;;;18.94;100.00
55277;BME280;41136;51.478;-2.610;2023-07-29T05:39:41;99635.22;;;19.00;100.00
55277;BME280;41136;51.478;-2.610;2023-07-29T05:42:06;99635.53;;;18.98;100.00
55277;BME280;41136;51.478;-2.610;2023-07-29T05:44:31;99635.11;;;19.03;100.00
55277;BME280;41136;51.478;-2.610;2023-07-29T05:46:56;99629.99;;;19.15;100.00
55277;BME280;41136;51.478;-2.610;2023-07-29T05:49:22;99631.05;;;19.31;100.00
55277;BME280;41136;51.478;-2.610;2023-07-29T05:51:47;99631.23;;;19.23;100.00
55277;BME280;41136;51.478;-2.610;2023-07-29T05:54:12;99631.42;;;18.83;100.00
55277;BME280;41136;51.478;-2.610;2023-07-29T05:56:38;99633.77;;;18.76;100.00
55277;BME280;41136;51.478;-2.610;2023-07-29T05:59:03;99635.36;;;18.95;100.00
55277;BME280;41136;51.478;-2.610;2023-07-29T06:01:28;99633.67;;;18.77;100.00
55277;BME280;41136;51.478;-2.610;2023-07-29T06:03:53;99634.29;;;18.87;100.00
55277;BME280;41136;51.478;-2.610;2023-07-29T06:06:19;99635.73;;;19.18;100.00
55277;BME280;41136;51.478;-2.610;2023-07-29T06:08:44;99637.69;;;19.02;100.00
55277;BME280;41136;51.478;-2.610;2023-07-29T06:11:09;99643.19;;;18.52;100.00
55277;BME280;41136;51.478;-2.610;2023-07-29T06:13:34;99639.51;;;19.09;100.00
55277;BME280;41136;51.478;-2.610;2023-07-29T06:16:00;99642.20;;;18.72;100.00
55277;BME280;41136;51.478;-2.610;2023-07-29T06:18:25;99637.51;;;18.99;100.00
55277;BME280;41136;51.478;-2.610;2023-07-29T06:20:50;99636.44;;;19.16;100.00
55277;BME280;41136;51.478;-2.610;2023-07-29T06:23:15;99634.44;;;19.49;100.00
55277;BME280;41136;51.478;-2.610;2023-07-29T06:25:41;99634.10;;;18.63;100.00
55277;BME280;41136;51.478;-2.610;2023-07-29T06:28:06;99637.89;;;19.30;100.00
55277;BME280;41136;51.478;-2.610;2023-07-29T06:30:31;99641.49;;;19.22;100.00
55277;BME280;41136;51.478;-2.610;2023-07-29T06:32:56;99642.12;;;18.83;100.00
55277;BME280;41136;51.478;-2.610;2023-07-29T06:35:22;99637.99;;;19.02;100.00
55277;BME280;41136;51.478;-2.610;2023-07-29T06:37:47;99639.47;;;18.58;100.00
55277;BME280;41136;51.478;-2.610;2023-07-29T06:40:12;99644.12;;;18.99;100.00
55277;BME280;41136;51.478;-2.610;2023-07-29T06:42:37;99642.15;;;18.55;100.00
55277;BME280;41136;51.478;-2.610;2023-07-29T06:45:04;99643.75;;;18.34;100.00
55277;BME280;41136;51.478;-2.610;2023-07-29T06:47:28;99643.79;;;19.21;100.00
55277;BME280;41136;51.478;-2.610;2023-07-29T06:49:54;99658.98;;;17.91;100.00
55277;BME280;41136;51.478;-2.610;2023-07-29T06:52:18;99653.51;;;17.65;100.00
55277;BME280;41136;51.478;-2.610;2023-07-29T06:54:44;99650.85;;;17.49;100.00
55277;BME280;41136;51.478;-2.610;2023-07-29T06:57:10;99655.70;;;17.89;100.00
55277;BME280;41136;51.478;-2.610;2023-07-29T06:59:35;99653.84;;;17.83;100.00
55277;BME280;41136;51.478;-2.610;2023-07-29T07:02:00;99656.19;;;18.13;100.00
55277;BME280;41136;51.478;-2.610;2023-07-29T07:04:25;99658.86;;;17.64;100.00
55277;BME280;41136;51.478;-2.610;2023-07-29T07:06:51;99661.04;;;17.52;100.00
55277;BME280;41136;51.478;-2.610;2023-07-29T07:09:16;99661.81;;;17.99;100.00
55277;BME280;41136;51.478;-2.610;2023-07-29T07:11:41;99661.40;;;17.71;100.00
55277;BME280;41136;51.478;-2.610;2023-07-29T07:14:06;99670.77;;;18.11;100.00
55277;BME280;41136;51.478;-2.610;2023-07-29T07:16:32;99672.25;;;17.82;100.00
55277;BME280;41136;51.478;-2.610;2023-07-29T07:19:02;99673.64;;;18.31;100.00
55277;BME280;41136;51.478;-2.610;2023-07-29T07:21:22;99671.30;;;17.95;100.00
55277;BME280;41136;51.478;-2.610;2023-07-29T07:23:49;99670.16;;;17.64;100.00
55277;BME280;41136;51.478;-2.610;2023-07-29T07:26:13;99664.22;;;18.61;100.00
55277;BME280;41136;51.478;-2.610;2023-07-29T07:28:38;99664.52;;;19.71;100.00
55277;BME280;41136;51.478;-2.610;2023-07-29T07:31:03;99665.91;;;19.16;100.00
55277;BME280;41136;51.478;-2.610;2023-07-29T07:33:28;99671.61;;;19.13;100.00
55277;BME280;41136;51.478;-2.610;2023-07-29T07:35:54;99667.88;;;19.82;100.00
55277;BME280;41136;51.478;-2.610;2023-07-29T07:38:19;99665.47;;;19.32;100.00
55277;BME280;41136;51.478;-2.610;2023-07-29T07:40:53;99673.49;;;18.91;100.00
55277;BME280;41136;51.478;-2.610;2023-07-29T07:43:10;99672.20;;;19.63;100.00
55277;BME280;41136;51.478;-2.610;2023-07-29T07:45:35;99675.16;;;19.72;100.00
55277;BME280;41136;51.478;-2.610;2023-07-29T07:48:00;99678.39;;;19.35;100.00
55277;BME280;41136;51.478;-2.610;2023-07-29T07:50:29;99685.84;;;18.83;100.00
55277;BME280;41136;51.478;-2.610;2023-07-29T07:52:51;99690.37;;;19.22;100.00
55277;BME280;41136;51.478;-2.610;2023-07-29T07:55:16;99685.89;;;18.89;100.00
55277;BME280;41136;51.478;-2.610;2023-07-29T07:57:41;99682.74;;;18.80;100.00
55277;BME280;41136;51.478;-2.610;2023-07-29T08:00:08;99685.18;;;19.30;100.00
55277;BME280;41136;51.478;-2.610;2023-07-29T08:02:32;99691.87;;;17.77;100.00
55277;BME280;41136;51.478;-2.610;2023-07-29T08:04:57;99688.73;;;17.98;100.00
55277;BME280;41136;51.478;-2.610;2023-07-29T08:07:22;99688.44;;;18.10;100.00
55277;BME280;41136;51.478;-2.610;2023-07-29T08:09:48;99698.87;;;17.82;100.00
55277;BME280;41136;51.478;-2.610;2023-07-29T08:12:13;99698.78;;;17.86;100.00
55277;BME280;41136;51.478;-2.610;2023-07-29T08:14:38;99710.50;;;17.45;100.00
55277;BME280;41136;51.478;-2.610;2023-07-29T08:17:04;99711.13;;;17.86;100.00
55277;BME280;41136;51.478;-2.610;2023-07-29T08:19:28;99710.00;;;17.89;100.00
55277;BME280;41136;51.478;-2.610;2023-07-29T08:21:54;99702.14;;;18.01;100.00
55277;BME280;41136;51.478;-2.610;2023-07-29T08:24:19;99702.98;;;18.26;100.00
55277;BME280;41136;51.478;-2.610;2023-07-29T08:26:44;99707.55;;;18.32;100.00
55277;BME280;41136;51.478;-2.610;2023-07-29T08:29:10;99703.00;;;18.13;100.00
55277;BME280;41136;51.478;-2.610;2023-07-29T08:31:35;99701.87;;;18.40;100.00
55277;BME280;41136;51.478;-2.610;2023-07-29T08:34:00;99712.32;;;17.09;100.00
55277;BME280;41136;51.478;-2.610;2023-07-29T08:36:25;99710.44;;;17.21;100.00
55277;BME280;41136;51.478;-2.610;2023-07-29T08:38:50;99713.46;;;16.37;100.00
55277;BME280;41136;51.478;-2.610;2023-07-29T08:41:19;99712.83;;;17.05;100.00
55277;BME280;41136;51.478;-2.610;2023-07-29T08:43:47;99718.15;;;16.82;100.00
55277;BME280;41136;51.478;-2.610;2023-07-29T08:46:07;99720.79;;;16.39;100.00
55277;BME280;41136;51.478;-2.610;2023-07-29T08:48:36;99723.95;;;16.89;100.00
55277;BME280;41136;51.478;-2.610;2023-07-29T08:50:59;99723.91;;;17.36;100.00
55277;BME280;41136;51.478;-2.610;2023-07-29T08:53:23;99720.57;;;17.27;100.00
55277;BME280;41136;51.478;-2.610;2023-07-29T08:55:48;99722.78;;;17.00;100.00
55277;BME280;41136;51.478;-2.610;2023-07-29T08:58:13;99728.37;;;16.35;100.00
55277;BME280;41136;51.478;-2.610;2023-07-29T09:00:39;99724.65;;;17.68;100.00
55277;BME280;41136;51.478;-2.610;2023-07-29T09:03:03;99727.98;;;17.99;100.00
55277;BME280;41136;51.478;-2.610;2023-07-29T09:05:29;99722.83;;;17.84;100.00
55277;BME280;41136;51.478;-2.610;2023-07-29T09:07:55;99728.62;;;17.30;100.00
55277;BME280;41136;51.478;-2.610;2023-07-29T09:10:21;99730.82;;;17.04;100.00
55277;BME280;41136;51.478;-2.610;2023-07-29T09:12:44;99733.23;;;17.85;100.00
55277;BME280;41136;51.478;-2.610;2023-07-29T09:15:10;99728.97;;;17.82;100.00
55277;BME280;41136;51.478;-2.610;2023-07-29T09:17:35;99733.21;;;17.60;100.00
55277;BME280;41136;51.478;-2.610;2023-07-29T09:20:00;99737.16;;;17.99;100.00
55277;BME280;41136;51.478;-2.610;2023-07-29T09:22:27;99739.37;;;17.63;100.00
55277;BME280;41136;51.478;-2.610;2023-07-29T09:24:51;99734.90;;;17.66;100.00
55277;BME280;41136;51.478;-2.610;2023-07-29T09:27:24;99732.99;;;17.96;100.00
55277;BME280;41136;51.478;-2.610;2023-07-29T09:29:41;99733.69;;;17.99;100.00
55277;BME280;41136;51.478;-2.610;2023-07-29T09:34:31;99732.26;;;17.89;100.00
55277;BME280;41136;51.478;-2.610;2023-07-29T09:36:57;99727.43;;;17.11;100.00
55277;BME280;41136;51.478;-2.610;2023-07-29T09:39:23;99729.37;;;17.35;100.00
55277;BME280;41136;51.478;-2.610;2023-07-29T09:41:48;99728.50;;;17.91;100.00
55277;BME280;41136;51.478;-2.610;2023-07-29T09:44:13;99722.67;;;17.79;100.00
55277;BME280;41136;51.478;-2.610;2023-07-29T09:46:38;99727.97;;;17.78;100.00
55277;BME280;41136;51.478;-2.610;2023-07-29T09:49:05;99727.25;;;17.95;100.00
55277;BME280;41136;51.478;-2.610;2023-07-29T09:51:29;99723.70;;;17.97;100.00
55277;BME280;41136;51.478;-2.610;2023-07-29T09:53:54;99721.40;;;18.68;100.00
55277;BME280;41136;51.478;-2.610;2023-07-29T09:56:25;99725.58;;;19.00;100.00
55277;BME280;41136;51.478;-2.610;2023-07-29T09:58:45;99734.19;;;18.95;100.00
55277;BME280;41136;51.478;-2.610;2023-07-29T10:01:10;99735.66;;;18.39;100.00
55277;BME280;41136;51.478;-2.610;2023-07-29T10:03:36;99737.69;;;18.74;100.00
55277;BME280;41136;51.478;-2.610;2023-07-29T10:06:01;99739.96;;;18.83;100.00
55277;BME280;41136;51.478;-2.610;2023-07-29T10:08:25;99736.81;;;19.25;100.00
55277;BME280;41136;51.478;-2.610;2023-07-29T10:10:51;99737.32;;;19.67;100.00
55277;BME280;41136;51.478;-2.610;2023-07-29T10:13:16;99736.64;;;18.83;100.00
55277;BME280;41136;51.478;-2.610;2023-07-29T10:15:42;99738.26;;;19.06;100.00
55277;BME280;41136;51.478;-2.610;2023-07-29T10:18:07;99742.25;;;18.73;100.00
55277;BME280;41136;51.478;-2.610;2023-07-29T10:20:32;99743.44;;;19.70;100.00
55277;BME280;41136;51.478;-2.610;2023-07-29T10:22:59;99746.70;;;18.64;100.00
55277;BME280;41136;51.478;-2.610;2023-07-29T10:25:22;99753.83;;;18.62;100.00
55277;BME280;41136;51.478;-2.610;2023-07-29T10:27:49;99756.21;;;18.17;100.00
55277;BME280;41136;51.478;-2.610;2023-07-29T10:30:12;99753.94;;;18.00;100.00
55277;BME280;41136;51.478;-2.610;2023-07-29T10:32:38;99751.40;;;17.84;100.00
55277;BME280;41136;51.478;-2.610;2023-07-29T10:35:03;99752.39;;;18.08;100.00
55277;BME280;41136;51.478;-2.610;2023-07-29T10:37:29;99756.58;;;18.11;100.00
55277;BME280;41136;51.478;-2.610;2023-07-29T10:39:54;99752.53;;;17.94;100.00
55277;BME280;41136;51.478;-2.610;2023-07-29T10:42:23;99761.81;;;18.36;100.00
55277;BME280;41136;51.478;-2.610;2023-07-29T10:44:49;99760.21;;;18.55;100.00
55277;BME280;41136;51.478;-2.610;2023-07-29T10:47:11;99765.55;;;18.40;100.00
55277;BME280;41136;51.478;-2.610;2023-07-29T10:49:35;99763.04;;;18.80;100.00
55277;BME280;41136;51.478;-2.610;2023-07-29T10:52:00;99763.70;;;19.17;100.00
55277;BME280;41136;51.478;-2.610;2023-07-29T10:54:25;99769.40;;;18.97;100.00
55277;BME280;41136;51.478;-2.610;2023-07-29T10:56:50;99773.44;;;18.68;97.64
55277;BME280;41136;51.478;-2.610;2023-07-29T11:01:42;99781.30;;;19.32;97.56
55277;BME280;41136;51.478;-2.610;2023-07-29T11:06:31;99783.95;;;18.71;100.00
55277;BME280;41136;51.478;-2.610;2023-07-29T11:08:56;99779.70;;;18.47;100.00
55277;BME280;41136;51.478;-2.610;2023-07-29T11:11:21;99778.70;;;18.97;100.00
55277;BME280;41136;51.478;-2.610;2023-07-29T11:13:47;99785.71;;;18.83;100.00
55277;BME280;41136;51.478;-2.610;2023-07-29T11:16:15;99784.62;;;19.01;100.00
55277;BME280;41136;51.478;-2.610;2023-07-29T11:18:37;99794.77;;;18.75;99.85
55277;BME280;41136;51.478;-2.610;2023-07-29T11:21:03;99787.77;;;19.13;98.34
55277;BME280;41136;51.478;-2.610;2023-07-29T11:23:30;99791.63;;;18.99;100.00
55277;BME280;41136;51.478;-2.610;2023-07-29T11:25:53;99790.85;;;19.42;95.77
55277;BME280;41136;51.478;-2.610;2023-07-29T11:28:18;99789.86;;;19.43;95.57
55277;BME280;41136;51.478;-2.610;2023-07-29T11:30:43;99794.65;;;19.10;95.43
55277;BME280;41136;51.478;-2.610;2023-07-29T11:33:08;99794.10;;;19.02;96.28
55277;BME280;41136;51.478;-2.610;2023-07-29T11:35:34;99788.77;;;19.54;92.68
55277;BME280;41136;51.478;-2.610;2023-07-29T11:37:59;99796.97;;;18.82;85.20
55277;BME280;41136;51.478;-2.610;2023-07-29T11:40:24;99802.71;;;18.54;85.09
55277;BME280;41136;51.478;-2.610;2023-07-29T11:42:51;99795.80;;;18.78;87.99
55277;BME280;41136;51.478;-2.610;2023-07-29T11:45:15;99796.54;;;19.38;88.06
55277;BME280;41136;51.478;-2.610;2023-07-29T11:47:40;99810.05;;;18.21;88.50
55277;BME280;41136;51.478;-2.610;2023-07-29T11:50:07;99811.47;;;18.69;88.20
55277;BME280;41136;51.478;-2.610;2023-07-29T11:52:31;99816.73;;;18.38;88.48
55277;BME280;41136;51.478;-2.610;2023-07-29T11:54:56;99819.52;;;18.30;89.82
55277;BME280;41136;51.478;-2.610;2023-07-29T11:57:21;99823.94;;;18.40;89.23
55277;BME280;41136;51.478;-2.610;2023-07-29T11:59:47;99831.31;;;18.10;92.32
55277;BME280;41136;51.478;-2.610;2023-07-29T12:02:13;99826.86;;;18.18;93.91
55277;BME280;41136;51.478;-2.610;2023-07-29T12:04:38;99834.31;;;18.43;93.18
55277;BME280;41136;51.478;-2.610;2023-07-29T12:07:03;99826.14;;;18.12;93.64
55277;BME280;41136;51.478;-2.610;2023-07-29T12:09:28;99832.43;;;18.00;94.99
55277;BME280;41136;51.478;-2.610;2023-07-29T12:11:53;99835.16;;;17.97;96.42
55277;BME280;41136;51.478;-2.610;2023-07-29T12:14:18;99828.97;;;18.49;95.42
55277;BME280;41136;51.478;-2.610;2023-07-29T12:16:44;99830.38;;;18.41;95.62
55277;BME280;41136;51.478;-2.610;2023-07-29T12:19:12;99833.49;;;18.14;96.65
55277;BME280;41136;51.478;-2.610;2023-07-29T12:21:35;99839.75;;;18.42;96.32
55277;BME280;41136;51.478;-2.610;2023-07-29T12:23:59;99837.57;;;18.18;96.88
55277;BME280;41136;51.478;-2.610;2023-07-29T12:26:27;99837.80;;;18.43;95.22
55277;BME280;41136;51.478;-2.610;2023-07-29T12:28:50;99845.84;;;17.99;93.55
55277;BME280;41136;51.478;-2.610;2023-07-29T12:31:15;99844.00;;;18.42;91.18
55277;BME280;41136;51.478;-2.610;2023-07-29T12:33:40;99843.27;;;18.19;91.96
55277;BME280;41136;51.478;-2.610;2023-07-29T12:36:05;99840.91;;;18.32;94.30
55277;BME280;41136;51.478;-2.610;2023-07-29T12:38:31;99842.01;;;18.10;93.52
55277;BME280;41136;51.478;-2.610;2023-07-29T12:40:56;99846.52;;;18.10;92.96
55277;BME280;41136;51.478;-2.610;2023-07-29T12:43:21;99853.83;;;18.40;93.86
55277;BME280;41136;51.478;-2.610;2023-07-29T12:45:47;99850.02;;;18.26;93.62